sensor_id;sensor_type;location;lat;lon;timestamp;pressure;altitude;pressure_sealevel;temperature;humidity
3122;BME280;1571;52.524;14.104;2022-08-19T00:02:00;100331.25;;;21.21;100.00
3122;BME280;1571;52.524;14.104;2022-08-19T00:04:31;100324.84;;;21.14;100.00
3122;BME280;1571;52.524;14.104;2022-08-19T00:07:02;100323.41;;;21.42;100.00
3122;BME280;1571;52.524;14.104;2022-08-19T00:09:31;100335.22;;;21.33;100.00
3122;BME280;1571;52.524;14.104;2022-08-19T00:12:00;100346.53;;;21.37;100.00
3122;BME280;1571;52.524;14.104;2022-08-19T00:14:29;100345.00;;;21.42;100.00
3122;BME280;1571;52.524;14.104;2022-08-19T00:16:59;100352.34;;;21.17;100.00
3122;BME280;1571;52.524;14.104;2022-08-19T00:19:30;100360.56;;;21.32;100.00
3122;BME280;1571;52.524;14.104;2022-08-19T00:21:58;100363.25;;;21.40;100.00
3122;BME280;1571;52.524;14.104;2022-08-19T00:24:27;100369.97;;;21.45;100.00
3122;BME280;1571;52.524;14.104;2022-08-19T00:26:55;100383.13;;;21.48;100.00
3122;BME280;1571;52.524;14.104;2022-08-19T00:29:45;100390.03;;;20.86;100.00
3122;BME280;1571;52.524;14.104;2022-08-19T00:32:18;100412.31;;;20.72;100.00
3122;BME280;1571;52.524;14.104;2022-08-19T00:34:47;100413.84;;;20.58;100.00
3122;BME280;1571;52.524;14.104;2022-08-19T00:37:16;100439.53;;;20.20;100.00
3122;BME280;1571;52.524;14.104;2022-08-19T00:39:45;100405.13;;;19.97;100.00
3122;BME280;1571;52.524;14.104;2022-08-19T00:42:15;100438.84;;;19.67;100.00
3122;BME280;1571;52.524;14.104;2022-08-19T00:44:43;100483.44;;;19.61;100.00
3122;BME280;1571;52.524;14.104;2022-08-19T00:47:13;100532.69;;;19.80;100.00
3122;BME280;1571;52.524;14.104;2022-08-19T00:49:45;100552.78;;;19.67;100.00
3122;BME280;1571;52.524;14.104;2022-08-19T00:52:20;100559.13;;;19.58;100.00
3122;BME280;1571;52.524;14.104;2022-08-19T00:54:49;100564.00;;;19.54;100.00
3122;BME280;1571;52.524;14.104;2022-08-19T00:57:24;100572.22;;;19.53;100.00
3122;BME280;1571;52.524;14.104;2022-08-19T00:59:55;100579.47;;;19.52;100.00
3122;BME280;1571;52.524;14.104;2022-08-19T01:02:31;100573.69;;;19.47;100.00
3122;BME280;1571;52.524;14.104;2022-08-19T01:05:02;100577.59;;;19.53;100.00
3122;BME280;1571;52.524;14.104;2022-08-19T01:07:31;100590.47;;;19.67;100.00
3122;BME280;1571;52.524;14.104;2022-08-19T01:10:07;100604.03;;;19.75;100.00
3122;BME280;1571;52.524;14.104;2022-08-19T01:12:36;100605.16;;;19.47;100.00
3122;BME280;1571;52.524;14.104;2022-08-19T01:15:07;100588.78;;;19.40;100.00
3122;BME280;1571;52.524;14.104;2022-08-19T01:17:39;100585.09;;;19.41;100.00
3122;BME280;1571;52.524;14.104;2022-08-19T01:20:11;100594.66;;;19.62;100.00
3122;BME280;1571;52.524;14.104;2022-08-19T01:22:44;100596.25;;;19.46;100.00
3122;BME280;1571;52.524;14.104;2022-08-19T01:25:13;100608.63;;;19.65;100.00
3122;BME280;1571;52.524;14.104;2022-08-19T01:27:45;100629.50;;;19.63;100.00
3122;BME280;1571;52.524;14.104;2022-08-19T01:30:20;100604.69;;;19.51;100.00
3122;BME280;1571;52.524;14.104;2022-08-19T01:32:50;100602.91;;;19.60;100.00
3122;BME280;1571;52.524;14.104;2022-08-19T01:35:18;100591.97;;;19.62;100.00
3122;BME280;1571;52.524;14.104;2022-08-19T01:37:50;100602.66;;;19.71;100.00
3122;BME280;1571;52.524;14.104;2022-08-19T01:40:21;100619.84;;;19.70;100.00
3122;BME280;1571;52.524;14.104;2022-08-19T01:42:50;100644.06;;;19.70;100.00
3122;BME280;1571;52.524;14.104;2022-08-19T01:45:22;100660.50;;;19.67;100.00
3122;BME280;1571;52.524;14.104;2022-08-19T01:47:53;100655.59;;;19.63;100.00
3122;BME280;1571;52.524;14.104;2022-08-19T01:50:29;100648.06;;;19.66;100.00
3122;BME280;1571;52.524;14.104;2022-08-19T01:52:59;100655.84;;;19.69;100.00
3122;BME280;1571;52.524;14.104;2022-08-19T01:55:35;100655.69;;;19.71;100.00
3122;BME280;1571;52.524;14.104;2022-08-19T01:58:11;100652.09;;;19.88;100.00
3122;BME280;1571;52.524;14.104;2022-08-19T02:00:42;100643.00;;;19.89;100.00
3122;BME280;1571;52.524;14.104;2022-08-19T02:03:11;100645.84;;;19.88;100.00
3122;BME280;1571;52.524;14.104;2022-08-19T02:05:40;100647.91;;;19.94;100.00
3122;BME280;1571;52.524;14.104;2022-08-19T02:08:10;100647.19;;;19.84;100.00
3122;BME280;1571;52.524;14.104;2022-08-19T02:10:40;100640.72;;;19.76;100.00
3122;BME280;1571;52.524;14.104;2022-08-19T02:13:09;100644.06;;;19.70;100.00
3122;BME280;1571;52.524;14.104;2022-08-19T02:15:38;100660.34;;;19.87;100.00
3122;BME280;1571;52.524;14.104;2022-08-19T02:18:07;100656.63;;;19.88;100.00
3122;BME280;1571;52.524;14.104;2022-08-19T02:20:36;100642.06;;;19.72;100.00
3122;BME280;1571;52.524;14.104;2022-08-19T02:23:06;100644.19;;;19.87;100.00
3122;BME280;1571;52.524;14.104;2022-08-19T02:25:46;100619.13;;;19.68;100.00
3122;BME280;1571;52.524;14.104;2022-08-19T02:28:15;100626.38;;;19.94;100.00
3122;BME280;1571;52.524;14.104;2022-08-19T02:30:46;100611.53;;;19.90;100.00
3122;BME280;1571;52.524;14.104;2022-08-19T02:33:15;100598.88;;;19.82;100.00
3122;BME280;1571;52.524;14.104;2022-08-19T02:35:45;100584.97;;;19.95;100.00
3122;BME280;1571;52.524;14.104;2022-08-19T02:38:14;100558.13;;;19.85;100.00
3122;BME280;1571;52.524;14.104;2022-08-19T02:40:58;100551.56;;;19.80;100.00
3122;BME280;1571;52.524;14.104;2022-08-19T02:43:28;100535.69;;;19.76;100.00
3122;BME280;1571;52.524;14.104;2022-08-19T02:46:01;100558.66;;;19.89;100.00
3122;BME280;1571;52.524;14.104;2022-08-19T02:48:29;100551.84;;;19.76;100.00
3122;BME280;1571;52.524;14.104;2022-08-19T02:50:59;100557.03;;;19.70;100.00
3122;BME280;1571;52.524;14.104;2022-08-19T02:53:28;100561.63;;;19.78;100.00
3122;BME280;1571;52.524;14.104;2022-08-19T02:55:58;100557.22;;;19.76;100.00
3122;BME280;1571;52.524;14.104;2022-08-19T02:58:27;100565.53;;;19.83;100.00
3122;BME280;1571;52.524;14.104;2022-08-19T03:00:56;100575.78;;;19.80;100.00
3122;BME280;1571;52.524;14.104;2022-08-19T03:03:24;100561.28;;;19.72;100.00
3122;BME280;1571;52.524;14.104;2022-08-19T03:06:07;100559.88;;;19.68;100.00
3122;BME280;1571;52.524;14.104;2022-08-19T03:08:36;100543.09;;;19.74;100.00
3122;BME280;1571;52.524;14.104;2022-08-19T03:11:06;100535.69;;;19.76;100.00
3122;BME280;1571;52.524;14.104;2022-08-19T03:13:40;100540.03;;;19.69;100.00
3122;BME280;1571;52.524;14.104;2022-08-19T03:16:11;100538.47;;;19.67;100.00
3122;BME280;1571;52.524;14.104;2022-08-19T03:18:39;100529.53;;;19.84;100.00
3122;BME280;1571;52.524;14.104;2022-08-19T03:21:08;100516.84;;;19.76;100.00
3122;BME280;1571;52.524;14.104;2022-08-19T03:23:38;100522.19;;;20.03;100.00
3122;BME280;1571;52.524;14.104;2022-08-19T03:26:08;100517.09;;;19.91;100.00
3122;BME280;1571;52.524;14.104;2022-08-19T03:28:43;100528.19;;;19.88;100.00
3122;BME280;1571;52.524;14.104;2022-08-19T03:31:19;100532.59;;;19.98;100.00
3122;BME280;1571;52.524;14.104;2022-08-19T03:34:09;100552.53;;;19.79;100.00
3122;BME280;1571;52.524;14.104;2022-08-19T03:36:39;100555.91;;;19.72;100.00
3122;BME280;1571;52.524;14.104;2022-08-19T03:39:07;100560.13;;;19.57;100.00
3122;BME280;1571;52.524;14.104;2022-08-19T03:41:40;100570.56;;;19.78;100.00
3122;BME280;1571;52.524;14.104;2022-08-19T03:44:13;100552.66;;;19.69;100.00
3122;BME280;1571;52.524;14.104;2022-08-19T03:46:45;100566.25;;;19.67;100.00
3122;BME280;1571;52.524;14.104;2022-08-19T03:49:14;100578.34;;;19.63;100.00
3122;BME280;1571;52.524;14.104;2022-08-19T03:51:45;100576.66;;;19.62;100.00
3122;BME280;1571;52.524;14.104;2022-08-19T03:54:14;100589.44;;;19.60;100.00
3122;BME280;1571;52.524;14.104;2022-08-19T03:56:45;100596.59;;;19.69;100.00
3122;BME280;1571;52.524;14.104;2022-08-19T03:59:18;100604.13;;;19.66;100.00
3122;BME280;1571;52.524;14.104;2022-08-19T04:01:47;100578.44;;;19.53;100.00
3122;BME280;1571;52.524;14.104;2022-08-19T04:04:15;100585.06;;;19.59;100.00
3122;BME280;1571;52.524;14.104;2022-08-19T04:06:45;100577.94;;;19.50;100.00
3122;BME280;1571;52.524;14.104;2022-08-19T04:09:15;100574.16;;;19.43;100.00
3122;BME280;1571;52.524;14.104;2022-08-19T04:11:47;100581.94;;;19.46;100.00
3122;BME280;1571;52.524;14.104;2022-08-19T04:14:18;100576.59;;;19.54;100.00
3122;BME280;1571;52.524;14.104;2022-08-19T04:16:47;100575.59;;;19.55;100.00
3122;BME280;1571;52.524;14.104;2022-08-19T04:19:18;100563.53;;;19.59;100.00
3122;BME280;1571;52.524;14.104;2022-08-19T04:21:47;100568.84;;;19.51;100.00
3122;BME280;1571;52.524;14.104;2022-08-19T04:24:16;100572.22;;;19.53;100.00
3122;BME280;1571;52.524;14.104;2022-08-19T04:26:47;100576.66;;;19.62;100.00
3122;BME280;1571;52.524;14.104;2022-08-19T04:29:17;100575.34;;;19.66;100.00
3122;BME280;1571;52.524;14.104;2022-08-19T04:31:49;100578.66;;;19.60;100.00
3122;BME280;1571;52.524;14.104;2022-08-19T04:34:20;100581.50;;;19.59;100.00
3122;BME280;1571;52.524;14.104;2022-08-19T04:36:51;100571.19;;;19.54;100.00
3122;BME280;1571;52.524;14.104;2022-08-19T04:39:23;100575.38;;;19.48;100.00
3122;BME280;1571;52.524;14.104;2022-08-19T04:42:13;100567.81;;;19.52;100.00
3122;BME280;1571;52.524;14.104;2022-08-19T04:44:59;100568.09;;;19.67;100.00
3122;BME280;1571;52.524;14.104;2022-08-19T04:47:27;100558.16;;;19.67;100.00
3122;BME280;1571;52.524;14.104;2022-08-19T04:50:19;100543.41;;;19.71;100.00
3122;BME280;1571;52.524;14.104;2022-08-19T04:52:50;100552.09;;;19.65;100.00
3122;BME280;1571;52.524;14.104;2022-08-19T04:55:18;100539.50;;;19.66;100.00
3122;BME280;1571;52.524;14.104;2022-08-19T04:57:48;100539.91;;;19.79;100.00
3122;BME280;1571;52.524;14.104;2022-08-19T05:00:17;100533.31;;;19.73;100.00
3122;BME280;1571;52.524;14.104;2022-08-19T05:02:46;100531.44;;;20.00;100.00
3122;BME280;1571;52.524;14.104;2022-08-19T05:05:16;100542.00;;;19.93;100.00
3122;BME280;1571;52.524;14.104;2022-08-19T05:07:44;100528.94;;;20.07;100.00
3122;BME280;1571;52.524;14.104;2022-08-19T05:10:12;100524.69;;;19.96;100.00
3122;BME280;1571;52.524;14.104;2022-08-19T05:12:41;100517.63;;;20.03;100.00
3122;BME280;1571;52.524;14.104;2022-08-19T05:15:10;100525.41;;;20.06;100.00
3122;BME280;1571;52.524;14.104;2022-08-19T05:17:38;100529.28;;;20.12;100.00
3122;BME280;1571;52.524;14.104;2022-08-19T05:20:28;100509.50;;;19.87;100.00
3122;BME280;1571;52.524;14.104;2022-08-19T05:23:14;100514.59;;;19.98;100.00
3122;BME280;1571;52.524;14.104;2022-08-19T05:25:49;100503.19;;;20.12;100.00
3122;BME280;1571;52.524;14.104;2022-08-19T05:28:18;100496.59;;;20.15;100.00
3122;BME280;1571;52.524;14.104;2022-08-19T05:30:48;100498.66;;;20.13;100.00
3122;BME280;1571;52.524;14.104;2022-08-19T05:33:18;100507.00;;;20.02;100.00
3122;BME280;1571;52.524;14.104;2022-08-19T05:35:47;100507.50;;;19.97;100.00
3122;BME280;1571;52.524;14.104;2022-08-19T05:38:17;100512.09;;;20.05;100.00
3122;BME280;1571;52.524;14.104;2022-08-19T05:40:45;100508.06;;;20.09;100.00
3122;BME280;1571;52.524;14.104;2022-08-19T05:43:14;100513.56;;;19.99;100.00
3122;BME280;1571;52.524;14.104;2022-08-19T05:45:43;100518.97;;;19.99;100.00
3122;BME280;1571;52.524;14.104;2022-08-19T05:48:13;100523.06;;;20.11;100.00
3122;BME280;1571;52.524;14.104;2022-08-19T05:50:44;100512.28;;;20.11;100.00
3122;BME280;1571;52.524;14.104;2022-08-19T05:53:12;100519.88;;;20.16;100.00
3122;BME280;1571;52.524;14.104;2022-08-19T05:55:43;100514.97;;;20.20;100.00
3122;BME280;1571;52.524;14.104;2022-08-19T05:58:11;100517.06;;;20.34;100.00
3122;BME280;1571;52.524;14.104;2022-08-19T06:00:43;100513.75;;;20.56;100.00
3122;BME280;1571;52.524;14.104;2022-08-19T06:03:12;100503.59;;;20.34;100.00
3122;BME280;1571;52.524;14.104;2022-08-19T06:05:41;100500.38;;;20.30;100.00
3122;BME280;1571;52.524;14.104;2022-08-19T06:08:19;100507.66;;;20.38;100.00
3122;BME280;1571;52.524;14.104;2022-08-19T06:11:17;100512.00;;;20.39;100.00
3122;BME280;1571;52.524;14.104;2022-08-19T06:13:47;100517.78;;;20.52;100.00
3122;BME280;1571;52.524;14.104;2022-08-19T06:16:26;100514.72;;;20.55;100.00
3122;BME280;1571;52.524;14.104;2022-08-19T06:18:56;100510.34;;;20.54;100.00
3122;BME280;1571;52.524;14.104;2022-08-19T06:21:27;100517.75;;;20.44;100.00
3122;BME280;1571;52.524;14.104;2022-08-19T06:23:55;100510.03;;;20.49;100.00
3122;BME280;1571;52.524;14.104;2022-08-19T06:26:25;100504.94;;;20.38;100.00
3122;BME280;1571;52.524;14.104;2022-08-19T06:28:54;100508.50;;;20.47;100.00
3122;BME280;1571;52.524;14.104;2022-08-19T06:31:27;100508.31;;;20.48;100.00
3122;BME280;1571;52.524;14.104;2022-08-19T06:33:57;100512.69;;;20.41;100.00
3122;BME280;1571;52.524;14.104;2022-08-19T06:36:28;100517.63;;;20.54;100.00
3122;BME280;1571;52.524;14.104;2022-08-19T06:38:59;100515.38;;;20.41;100.00
3122;BME280;1571;52.524;14.104;2022-08-19T06:41:29;100533.53;;;20.31;100.00
3122;BME280;1571;52.524;14.104;2022-08-19T06:43:57;100542.00;;;20.36;100.00
3122;BME280;1571;52.524;14.104;2022-08-19T06:46:26;100549.75;;;20.39;100.00
3122;BME280;1571;52.524;14.104;2022-08-19T06:49:00;100561.56;;;20.38;100.00
3122;BME280;1571;52.524;14.104;2022-08-19T06:51:29;100558.69;;;20.39;100.00
3122;BME280;1571;52.524;14.104;2022-08-19T06:53:59;100560.88;;;20.44;100.00
3122;BME280;1571;52.524;14.104;2022-08-19T06:56:32;100551.28;;;20.33;100.00
3122;BME280;1571;52.524;14.104;2022-08-19T06:59:04;100552.66;;;20.54;100.00
3122;BME280;1571;52.524;14.104;2022-08-19T07:01:35;100556.16;;;20.38;100.00
3122;BME280;1571;52.524;14.104;2022-08-19T07:04:07;100546.97;;;20.57;100.00
3122;BME280;1571;52.524;14.104;2022-08-19T07:06:38;100545.03;;;20.41;100.00
3122;BME280;1571;52.524;14.104;2022-08-19T07:09:12;100539.31;;;20.44;100.00
3122;BME280;1571;52.524;14.104;2022-08-19T07:11:45;100538.66;;;20.50;100.00
3122;BME280;1571;52.524;14.104;2022-08-19T07:14:15;100530.38;;;20.44;100.00
3122;BME280;1571;52.524;14.104;2022-08-19T07:16:47;100517.06;;;20.42;100.00
3122;BME280;1571;52.524;14.104;2022-08-19T07:19:19;100524.47;;;20.32;100.00
3122;BME280;1571;52.524;14.104;2022-08-19T07:21:50;100533.75;;;20.46;100.00
3122;BME280;1571;52.524;14.104;2022-08-19T07:24:21;100533.56;;;20.39;100.00
3122;BME280;1571;52.524;14.104;2022-08-19T07:26:52;100527.38;;;20.47;100.00
3122;BME280;1571;52.524;14.104;2022-08-19T07:29:21;100536.13;;;20.41;100.00
3122;BME280;1571;52.524;14.104;2022-08-19T07:31:55;100544.41;;;20.47;100.00
3122;BME280;1571;52.524;14.104;2022-08-19T07:34:29;100544.72;;;20.52;100.00
3122;BME280;1571;52.524;14.104;2022-08-19T07:36:58;100539.09;;;20.72;100.00
3122;BME280;1571;52.524;14.104;2022-08-19T07:39:29;100532.63;;;20.65;100.00
3122;BME280;1571;52.524;14.104;2022-08-19T07:42:00;100532.66;;;20.73;100.00
3122;BME280;1571;52.524;14.104;2022-08-19T07:44:29;100533.66;;;20.80;100.00
3122;BME280;1571;52.524;14.104;2022-08-19T07:46:57;100517.81;;;20.61;100.00
3122;BME280;1571;52.524;14.104;2022-08-19T07:49:28;100510.75;;;20.84;100.00
3122;BME280;1571;52.524;14.104;2022-08-19T07:51:58;100500.28;;;20.73;100.00
3122;BME280;1571;52.524;14.104;2022-08-19T07:54:31;100495.91;;;20.80;100.00
3122;BME280;1571;52.524;14.104;2022-08-19T07:57:01;100495.91;;;20.80;100.00
3122;BME280;1571;52.524;14.104;2022-08-19T07:59:30;100507.53;;;20.64;100.00
3122;BME280;1571;52.524;14.104;2022-08-19T08:01:59;100508.72;;;20.62;100.00
3122;BME280;1571;52.524;14.104;2022-08-19T08:04:30;100512.13;;;20.96;100.00
3122;BME280;1571;52.524;14.104;2022-08-19T08:07:24;100491.50;;;20.87;100.00
3122;BME280;1571;52.524;14.104;2022-08-19T08:10:12;100490.84;;;20.93;100.00
3122;BME280;1571;52.524;14.104;2022-08-19T08:12:47;100487.81;;;21.13;100.00
3122;BME280;1571;52.524;14.104;2022-08-19T08:15:36;100481.41;;;20.81;100.00
3122;BME280;1571;52.524;14.104;2022-08-19T08:18:09;100483.59;;;21.02;100.00
3122;BME280;1571;52.524;14.104;2022-08-19T08:20:38;100469.25;;;21.10;100.00
3122;BME280;1571;52.524;14.104;2022-08-19T08:23:07;100466.41;;;20.95;100.00
3122;BME280;1571;52.524;14.104;2022-08-19T08:25:54;100474.31;;;21.13;100.00
3122;BME280;1571;52.524;14.104;2022-08-19T08:28:24;100473.47;;;20.96;100.00
3122;BME280;1571;52.524;14.104;2022-08-19T08:30:57;100461.13;;;21.18;100.00
3122;BME280;1571;52.524;14.104;2022-08-19T08:33:28;100446.97;;;21.16;100.00
3122;BME280;1571;52.524;14.104;2022-08-19T08:36:04;100434.81;;;21.28;100.00
3122;BME280;1571;52.524;14.104;2022-08-19T08:38:33;100435.47;;;21.30;100.00
3122;BME280;1571;52.524;14.104;2022-08-19T08:41:17;100428.91;;;21.25;100.00
3122;BME280;1571;52.524;14.104;2022-08-19T08:43:49;100440.91;;;21.14;100.00
3122;BME280;1571;52.524;14.104;2022-08-19T08:46:22;100450.88;;;20.97;100.00
3122;BME280;1571;52.524;14.104;2022-08-19T08:49:03;100459.13;;;21.20;100.00
3122;BME280;1571;52.524;14.104;2022-08-19T08:51:37;100447.88;;;21.64;100.00
3122;BME280;1571;52.524;14.104;2022-08-19T08:54:14;100432.34;;;21.97;100.00
3122;BME280;1571;52.524;14.104;2022-08-19T08:56:44;100421.72;;;21.96;100.00
3122;BME280;1571;52.524;14.104;2022-08-19T08:59:16;100422.47;;;21.81;100.00
3122;BME280;1571;52.524;14.104;2022-08-19T09:01:47;100419.50;;;22.31;100.00
3122;BME280;1571;52.524;14.104;2022-08-19T09:04:16;100411.75;;;21.96;100.00
3122;BME280;1571;52.524;14.104;2022-08-19T09:06:50;100417.44;;;22.33;100.00
3122;BME280;1571;52.524;14.104;2022-08-19T09:09:25;100418.09;;;22.35;100.00
3122;BME280;1571;52.524;14.104;2022-08-19T09:12:05;100404.34;;;22.68;100.00
3122;BME280;1571;52.524;14.104;2022-08-19T09:14:45;100399.47;;;22.78;100.00
3122;BME280;1571;52.524;14.104;2022-08-19T09:17:19;100396.34;;;22.51;100.00
3122;BME280;1571;52.524;14.104;2022-08-19T09:19:59;100402.41;;;22.07;100.00
3122;BME280;1571;52.524;14.104;2022-08-19T09:22:37;100414.00;;;22.16;100.00
3122;BME280;1571;52.524;14.104;2022-08-19T09:25:08;100412.78;;;22.50;100.00
3122;BME280;1571;52.524;14.104;2022-08-19T09:27:38;100401.59;;;22.30;100.00
3122;BME280;1571;52.524;14.104;2022-08-19T09:30:14;100397.59;;;22.17;100.00
3122;BME280;1571;52.524;14.104;2022-08-19T09:32:43;100394.66;;;22.50;100.00
3122;BME280;1571;52.524;14.104;2022-08-19T09:35:13;100394.03;;;22.17;100.00
3122;BME280;1571;52.524;14.104;2022-08-19T09:37:43;100399.22;;;22.27;100.00
3122;BME280;1571;52.524;14.104;2022-08-19T09:40:12;100393.75;;;22.58;100.00
3122;BME280;1571;52.524;14.104;2022-08-19T09:42:42;100389.38;;;22.72;100.00
3122;BME280;1571;52.524;14.104;2022-08-19T09:45:18;100382.28;;;23.23;100.00
3122;BME280;1571;52.524;14.104;2022-08-19T09:47:48;100366.53;;;23.63;100.00
3122;BME280;1571;52.524;14.104;2022-08-19T09:50:21;100357.00;;;23.67;100.00
3122;BME280;1571;52.524;14.104;2022-08-19T09:52:51;100354.72;;;23.49;100.00
3122;BME280;1571;52.524;14.104;2022-08-19T09:55:25;100357.91;;;23.23;100.00
3122;BME280;1571;52.524;14.104;2022-08-19T09:57:57;100364.38;;;23.22;100.00
3122;BME280;1571;52.524;14.104;2022-08-19T10:00:25;100359.56;;;22.80;100.00
3122;BME280;1571;52.524;14.104;2022-08-19T10:02:53;100366.34;;;22.76;100.00
3122;BME280;1571;52.524;14.104;2022-08-19T10:05:22;100371.97;;;22.74;100.00
3122;BME280;1571;52.524;14.104;2022-08-19T10:08:10;100376.63;;;22.65;100.00
3122;BME280;1571;52.524;14.104;2022-08-19T10:10:40;100374.19;;;22.71;100.00
3122;BME280;1571;52.524;14.104;2022-08-19T10:13:14;100373.47;;;22.39;100.00
3122;BME280;1571;52.524;14.104;2022-08-19T10:15:43;100383.06;;;22.18;100.00
3122;BME280;1571;52.524;14.104;2022-08-19T10:18:15;100381.66;;;22.69;100.00
3122;BME280;1571;52.524;14.104;2022-08-19T10:20:46;100375.19;;;22.70;100.00
3122;BME280;1571;52.524;14.104;2022-08-19T10:23:20;100364.00;;;23.11;100.00
3122;BME280;1571;52.524;14.104;2022-08-19T10:25:49;100352.59;;;23.15;100.00
3122;BME280;1571;52.524;14.104;2022-08-19T10:28:20;100342.41;;;23.32;100.00
3122;BME280;1571;52.524;14.104;2022-08-19T10:30:49;100331.56;;;23.32;100.00
3122;BME280;1571;52.524;14.104;2022-08-19T10:33:18;100327.69;;;23.20;100.00
3122;BME280;1571;52.524;14.104;2022-08-19T10:36:09;100331.31;;;23.27;100.00
3122;BME280;1571;52.524;14.104;2022-08-19T10:38:38;100326.19;;;23.02;100.00
3122;BME280;1571;52.524;14.104;2022-08-19T10:41:19;100321.78;;;23.31;100.00
3122;BME280;1571;52.524;14.104;2022-08-19T10:43:50;100322.13;;;22.98;100.00
3122;BME280;1571;52.524;14.104;2022-08-19T10:46:20;100329.69;;;23.33;100.00
3122;BME280;1571;52.524;14.104;2022-08-19T10:48:51;100332.34;;;23.26;100.00
3122;BME280;1571;52.524;14.104;2022-08-19T10:51:20;100325.81;;;23.57;100.00
3122;BME280;1571;52.524;14.104;2022-08-19T10:54:16;100324.91;;;23.49;100.00
3122;BME280;1571;52.524;14.104;2022-08-19T10:56:59;100331.44;;;23.55;100.00
3122;BME280;1571;52.524;14.104;2022-08-19T10:59:28;100330.94;;;23.81;100.00
3122;BME280;1571;52.524;14.104;2022-08-19T11:02:03;100324.25;;;23.47;100.00
3122;BME280;1571;52.524;14.104;2022-08-19T11:04:32;100335.59;;;23.87;100.00
3122;BME280;1571;52.524;14.104;2022-08-19T11:07:03;100340.19;;;23.72;100.00
3122;BME280;1571;52.524;14.104;2022-08-19T11:09:37;100344.03;;;23.63;100.00
3122;BME280;1571;52.524;14.104;2022-08-19T11:12:07;100344.94;;;23.19;100.00
3122;BME280;1571;52.524;14.104;2022-08-19T11:14:37;100353.53;;;23.22;100.00
3122;BME280;1571;52.524;14.104;2022-08-19T11:17:05;100355.69;;;23.27;100.00
3122;BME280;1571;52.524;14.104;2022-08-19T11:19:34;100352.59;;;23.15;100.00
3122;BME280;1571;52.524;14.104;2022-08-19T11:22:02;100351.00;;;23.21;100.00
3122;BME280;1571;52.524;14.104;2022-08-19T11:24:32;100354.47;;;23.30;100.00
3122;BME280;1571;52.524;14.104;2022-08-19T11:27:04;100363.03;;;23.48;100.00
3122;BME280;1571;52.524;14.104;2022-08-19T11:29:33;100357.50;;;23.56;100.00
3122;BME280;1571;52.524;14.104;2022-08-19T11:32:04;100359.38;;;23.56;100.00
3122;BME280;1571;52.524;14.104;2022-08-19T11:34:33;100346.84;;;23.55;100.00
3122;BME280;1571;52.524;14.104;2022-08-19T11:37:03;100360.22;;;23.56;100.00
3122;BME280;1571;52.524;14.104;2022-08-19T11:39:35;100355.13;;;23.68;100.00
3122;BME280;1571;52.524;14.104;2022-08-19T11:42:05;100364.50;;;23.65;100.00
3122;BME280;1571;52.524;14.104;2022-08-19T11:44:55;100371.94;;;23.42;100.00
3122;BME280;1571;52.524;14.104;2022-08-19T11:47:23;100373.69;;;23.35;100.00
3122;BME280;1571;52.524;14.104;2022-08-19T11:49:53;100389.00;;;23.27;100.00
3122;BME280;1571;52.524;14.104;2022-08-19T11:52:21;100385.00;;;23.38;100.00
3122;BME280;1571;52.524;14.104;2022-08-19T11:54:51;100388.34;;;23.25;100.00
3122;BME280;1571;52.524;14.104;2022-08-19T11:57:19;100400.97;;;23.33;100.00
3122;BME280;1571;52.524;14.104;2022-08-19T11:59:50;100396.94;;;23.29;100.00
3122;BME280;1571;52.524;14.104;2022-08-19T12:02:19;100404.25;;;23.28;100.00
3122;BME280;1571;52.524;14.104;2022-08-19T12:04:48;100402.38;;;23.29;100.00
3122;BME280;1571;52.524;14.104;2022-08-19T12:07:17;100404.25;;;23.28;100.00
3122;BME280;1571;52.524;14.104;2022-08-19T12:09:45;100403.69;;;23.33;100.00
3122;BME280;1571;52.524;14.104;2022-08-19T12:12:16;100394.81;;;23.24;100.00
3122;BME280;1571;52.524;14.104;2022-08-19T12:14:44;100396.22;;;23.35;100.00
3122;BME280;1571;52.524;14.104;2022-08-19T12:17:13;100385.00;;;23.53;100.00
3122;BME280;1571;52.524;14.104;2022-08-19T12:19:42;100368.78;;;23.75;99.21
3122;BME280;1571;52.524;14.104;2022-08-19T12:22:10;100366.81;;;24.26;98.44
3122;BME280;1571;52.524;14.104;2022-08-19T12:24:39;100369.91;;;24.66;96.54
3122;BME280;1571;52.524;14.104;2022-08-19T12:27:07;100367.72;;;24.83;94.62
3122;BME280;1571;52.524;14.104;2022-08-19T12:29:40;100370.66;;;24.82;96.09
3122;BME280;1571;52.524;14.104;2022-08-19T12:32:08;100373.78;;;25.13;92.20
3122;BME280;1571;52.524;14.104;2022-08-19T12:34:38;100379.41;;;25.12;90.10
3122;BME280;1571;52.524;14.104;2022-08-19T12:37:07;100379.59;;;25.10;91.26
3122;BME280;1571;52.524;14.104;2022-08-19T12:39:37;100386.06;;;24.75;94.91
3122;BME280;1571;52.524;14.104;2022-08-19T12:42:06;100378.56;;;25.11;91.62
3122;BME280;1571;52.524;14.104;2022-08-19T12:44:35;100384.66;;;25.13;91.25
3122;BME280;1571;52.524;14.104;2022-08-19T12:47:10;100367.25;;;25.36;89.78
3122;BME280;1571;52.524;14.104;2022-08-19T12:49:38;100373.31;;;25.38;89.33
3122;BME280;1571;52.524;14.104;2022-08-19T12:52:23;100356.44;;;26.11;86.17
3122;BME280;1571;52.524;14.104;2022-08-19T12:54:53;100356.47;;;26.51;84.17
3122;BME280;1571;52.524;14.104;2022-08-19T12:57:22;100351.94;;;25.76;83.60
3122;BME280;1571;52.524;14.104;2022-08-19T13:00:01;100361.50;;;25.66;86.40
3122;BME280;1571;52.524;14.104;2022-08-19T13:02:33;100358.47;;;25.89;84.45
3122;BME280;1571;52.524;14.104;2022-08-19T13:05:07;100356.97;;;25.86;84.75
3122;BME280;1571;52.524;14.104;2022-08-19T13:07:36;100364.88;;;25.68;84.92
3122;BME280;1571;52.524;14.104;2022-08-19T13:10:07;100362.16;;;25.26;87.18
3122;BME280;1571;52.524;14.104;2022-08-19T13:12:35;100370.25;;;25.54;87.44
3122;BME280;1571;52.524;14.104;2022-08-19T13:15:05;100367.75;;;25.60;86.13